Time;durP1;ratioP1;P1;durP2;ratioP2;P2;SDS_P1;SDS_P2;PMS_P1;PMS_P2;Temp;Humidity;BMP_temperature;BMP_pressure;BME280_temperature;BME280_humidity;BME280_pressure;Samples;Min_cycle;Max_cycle;Signal;HPM_P1;HPM_P2
2022/11/14 00:03:34;;;;;;;9.10;5.90;;;;;;;;;;8358640;28;21124;-63
2022/11/14 00:07:34;;;;;;;10.50;6.73;;;;;;;;;;8342054;28;20872;-63
2022/11/14 00:11:34;;;;;;;10.73;6.53;;;;;;;;;;8360135;28;20292;-63
2022/11/14 00:15:34;;;;;;;13.00;6.68;;;;;;;;;;8361291;28;20259;-63
2022/11/14 00:19:34;;;;;;;8.25;6.85;;;;;;;;;;8361462;28;20022;-63
2022/11/14 00:23:35;;;;;;;9.90;7.18;;;;;;;;;;8359605;28;20591;-63
2022/11/14 00:27:35;;;;;;;9.70;6.63;;;;;;;;;;8360307;28;20020;-63
2022/11/14 00:31:35;;;;;;;9.45;7.35;;;;;;;;;;8358311;28;20263;-63
2022/11/14 00:35:35;;;;;;;9.88;7.35;;;;;;;;;;8358175;28;20149;-63
2022/11/14 00:39:36;;;;;;;9.87;7.73;;;;;;;;;;8358868;28;20092;-63
2022/11/14 00:43:36;;;;;;;10.20;7.35;;;;;;;;;;8358670;28;20287;-63
2022/11/14 00:47:36;;;;;;;9.18;6.65;;;;;;;;;;8355242;28;20071;-63
2022/11/14 00:51:36;;;;;;;11.73;7.80;;;;;;;;;;8359060;28;20077;-63
2022/11/14 00:55:36;;;;;;;812.72;28.17;;;;;;;;;;8359985;28;20046;-63
2022/11/14 00:59:37;;;;;;;564.00;21.35;;;;;;;;;;8360934;28;20025;-64
2022/11/14 01:03:37;;;;;;;426.55;18.13;;;;;;;;;;8355880;28;20094;-64
2022/11/14 01:07:37;;;;;;;514.20;20.27;;;;;;;;;;8336866;28;20071;-63
2022/11/14 01:11:37;;;;;;;765.95;28.40;;;;;;;;;;8355720;28;20024;-63
2022/11/14 01:15:41;;;;;;;532.17;21.88;;;;;;;;;;8354888;28;20036;-64
2022/11/14 01:19:41;;;;;;;434.52;18.00;;;;;;;;;;8358775;28;20154;-63
2022/11/14 01:23:42;;;;;;;361.55;17.98;;;;;;;;;;8360685;28;20067;-63
2022/11/14 01:27:42;;;;;;;720.95;28.63;;;;;;;;;;8357500;28;20017;-63
2022/11/14 01:31:42;;;;;;;629.15;25.08;;;;;;;;;;8358372;28;20661;-63
2022/11/14 01:35:42;;;;;;;594.45;24.92;;;;;;;;;;8358631;28;20473;-63
2022/11/14 01:39:42;;;;;;;559.65;27.67;;;;;;;;;;8357914;28;20087;-63
2022/11/14 01:43:43;;;;;;;735.40;33.20;;;;;;;;;;8359211;28;20061;-63
2022/11/14 01:47:43;;;;;;;505.60;26.33;;;;;;;;;;8354764;28;20079;-64
2022/11/14 01:51:45;;;;;;;424.95;24.35;;;;;;;;;;8358096;28;20020;-63
2022/11/14 01:55:46;;;;;;;689.28;34.25;;;;;;;;;;8357456;28;20111;-63
2022/11/14 01:59:51;;;;;;;277.15;22.38;;;;;;;;;;8328887;28;20028;-64
2022/11/14 02:03:53;;;;;;;428.05;23.23;;;;;;;;;;8355721;28;20160;-66
2022/11/14 02:07:53;;;;;;;431.92;24.30;;;;;;;;;;8355593;28;20020;-63
2022/11/14 02:11:54;;;;;;;507.95;26.42;;;;;;;;;;8355553;28;20051;-63
2022/11/14 02:15:54;;;;;;;331.75;23.30;;;;;;;;;;8338510;28;20059;-63
2022/11/14 02:19:59;;;;;;;500.77;25.87;;;;;;;;;;8355946;28;20024;-66
2022/11/14 02:23:59;;;;;;;407.60;25.90;;;;;;;;;;8359101;28;20286;-64
2022/11/14 02:27:59;;;;;;;383.38;26.65;;;;;;;;;;8356548;28;20029;-63
2022/11/14 02:32:00;;;;;;;364.98;25.98;;;;;;;;;;8355960;28;20024;-64
2022/11/14 02:36:00;;;;;;;330.63;24.73;;;;;;;;;;8357867;28;20046;-63
2022/11/14 02:40:01;;;;;;;468.55;26.55;;;;;;;;;;8358392;28;20494;-63
2022/11/14 02:44:01;;;;;;;466.38;28.25;;;;;;;;;;8354802;28;20052;-63
2022/11/14 02:48:01;;;;;;;558.83;30.35;;;;;;;;;;8354637;28;20020;-63
2022/11/14 02:52:01;;;;;;;710.97;33.87;;;;;;;;;;8359447;28;20103;-64
2022/11/14 02:56:02;;;;;;;269.67;22.52;;;;;;;;;;8355733;28;20273;-64
2022/11/14 03:00:03;;;;;;;457.38;33.08;;;;;;;;;;8356520;28;20992;-64
2022/11/14 03:04:03;;;;;;;500.73;30.40;;;;;;;;;;8359354;28;20124;-63
2022/11/14 03:08:03;;;;;;;146.23;23.70;;;;;;;;;;8364148;28;20982;-63
2022/11/14 03:12:03;;;;;;;217.98;25.13;;;;;;;;;;8361562;28;20031;-63
2022/11/14 03:16:05;;;;;;;198.30;25.42;;;;;;;;;;8358968;28;20126;-64
2022/11/14 03:20:05;;;;;;;230.43;26.65;;;;;;;;;;8361824;28;20469;-63
2022/11/14 03:24:06;;;;;;;232.10;26.73;;;;;;;;;;8361987;28;20042;-66
2022/11/14 03:28:06;;;;;;;80.97;20.08;;;;;;;;;;8359237;28;20032;-64
2022/11/14 03:32:06;;;;;;;340.13;27.05;;;;;;;;;;8360699;28;20760;-63
2022/11/14 03:36:07;;;;;;;149.27;21.40;;;;;;;;;;8360945;28;20020;-63
2022/11/14 03:40:07;;;;;;;371.50;27.20;;;;;;;;;;8362586;28;20016;-65
2022/11/14 03:44:07;;;;;;;371.92;27.95;;;;;;;;;;8363762;28;20052;-63
2022/11/14 03:48:08;;;;;;;410.35;27.13;;;;;;;;;;8360889;28;20032;-63
2022/11/14 03:52:08;;;;;;;460.55;29.45;;;;;;;;;;8362256;28;20025;-63
2022/11/14 03:56:08;;;;;;;516.17;31.02;;;;;;;;;;8361521;28;20031;-63
2022/11/14 04:00:08;;;;;;;167.73;22.33;;;;;;;;;;8357911;28;20021;-63
2022/11/14 04:04:10;;;;;;;750.78;38.17;;;;;;;;;;8359504;28;20358;-64
2022/11/14 04:08:10;;;;;;;473.38;29.08;;;;;;;;;;8359204;28;20028;-63
2022/11/14 04:12:11;;;;;;;831.97;37.63;;;;;;;;;;8358958;28;20757;-63
2022/11/14 04:16:11;;;;;;;623.75;32.85;;;;;;;;;;8361147;28;20242;-64
2022/11/14 04:20:12;;;;;;;398.83;26.05;;;;;;;;;;8358386;28;20063;-64
2022/11/14 04:24:12;;;;;;;378.70;23.95;;;;;;;;;;8362624;28;20067;-64
2022/11/14 04:28:12;;;;;;;286.08;21.38;;;;;;;;;;8362696;28;20409;-64
2022/11/14 04:32:13;;;;;;;147.43;19.00;;;;;;;;;;8361472;28;20102;-63
2022/11/14 04:36:13;;;;;;;187.93;19.30;;;;;;;;;;8359257;28;20702;-63
2022/11/14 04:40:13;;;;;;;377.88;24.15;;;;;;;;;;8361321;28;20020;-62
2022/11/14 04:44:13;;;;;;;311.05;22.25;;;;;;;;;;8359356;28;20017;-63
2022/11/14 04:48:14;;;;;;;107.35;17.42;;;;;;;;;;8357384;28;20066;-64
2022/11/14 04:52:14;;;;;;;384.70;22.83;;;;;;;;;;8360179;28;20029;-63
2022/11/14 04:56:14;;;;;;;272.52;19.75;;;;;;;;;;8359474;28;20052;-63
2022/11/14 05:00:14;;;;;;;321.73;19.90;;;;;;;;;;8360341;28;20055;-63
2022/11/14 05:04:15;;;;;;;669.83;26.63;;;;;;;;;;8357984;28;20115;-63
2022/11/14 05:08:15;;;;;;;803.27;32.60;;;;;;;;;;8358952;28;20051;-63
2022/11/14 05:12:15;;;;;;;469.03;22.77;;;;;;;;;;8358644;28;20996;-63
2022/11/14 05:16:15;;;;;;;314.40;20.38;;;;;;;;;;8356341;28;20267;-63
2022/11/14 05:20:16;;;;;;;561.33;26.30;;;;;;;;;;8359948;28;20024;-63
2022/11/14 05:24:18;;;;;;;639.35;27.85;;;;;;;;;;8357220;28;20124;-63
2022/11/14 05:28:18;;;;;;;938.65;36.47;;;;;;;;;;8338835;28;20034;-63
2022/11/14 05:32:18;;;;;;;793.17;33.95;;;;;;;;;;8356964;28;20032;-64
2022/11/14 05:36:18;;;;;;;825.22;32.10;;;;;;;;;;8359594;28;20065;-63
2022/11/14 05:40:19;;;;;;;764.08;30.75;;;;;;;;;;8357927;28;20038;-63
2022/11/14 05:44:19;;;;;;;676.78;29.73;;;;;;;;;;8358357;28;20041;-64
2022/11/14 05:48:19;;;;;;;694.67;30.50;;;;;;;;;;8350839;28;20075;-63
2022/11/14 05:52:19;;;;;;;855.90;35.08;;;;;;;;;;8358306;28;20020;-63
2022/11/14 05:56:20;;;;;;;857.65;33.33;;;;;;;;;;8355203;28;20032;-63
2022/11/14 06:00:20;;;;;;;1194.88;42.40;;;;;;;;;;8355224;28;20025;-63
2022/11/14 06:04:21;;;;;;;1015.67;36.17;;;;;;;;;;8356788;28;20036;-63
2022/11/14 06:08:21;;;;;;;809.55;31.80;;;;;;;;;;8356761;28;20302;-64
2022/11/14 06:12:21;;;;;;;1317.95;46.50;;;;;;;;;;8355483;28;20438;-63
2022/11/14 06:16:21;;;;;;;955.25;33.53;;;;;;;;;;8354145;28;20505;-63
2022/11/14 06:20:22;;;;;;;1305.78;45.05;;;;;;;;;;8353746;28;20132;-64
2022/11/14 06:24:22;;;;;;;1172.15;42.60;;;;;;;;;;8355951;28;20029;-63
2022/11/14 06:28:22;;;;;;;1072.05;40.53;;;;;;;;;;8354741;28;20029;-63
2022/11/14 06:32:22;;;;;;;786.63;31.38;;;;;;;;;;8356197;28;20037;-64
2022/11/14 06:36:22;;;;;;;631.28;27.17;;;;;;;;;;8354051;28;20143;-63
2022/11/14 06:40:23;;;;;;;1537.93;54.92;;;;;;;;;;8356051;28;20028;-63
2022/11/14 06:44:23;;;;;;;706.33;29.55;;;;;;;;;;8356548;28;20029;-62
2022/11/14 06:48:23;;;;;;;929.70;35.42;;;;;;;;;;8355092;28;20139;-63
2022/11/14 06:52:25;;;;;;;901.83;37.45;;;;;;;;;;8355584;28;20021;-64
2022/11/14 06:56:25;;;;;;;731.05;30.10;;;;;;;;;;8353706;28;20763;-64
2022/11/14 07:00:25;;;;;;;495.95;23.88;;;;;;;;;;8355145;28;20819;-64
2022/11/14 07:04:25;;;;;;;737.55;29.85;;;;;;;;;;8354044;28;20050;-63
2022/11/14 07:08:26;;;;;;;870.85;34.25;;;;;;;;;;8338919;28;20075;-63
2022/11/14 07:12:28;;;;;;;803.60;29.48;;;;;;;;;;8356152;28;20626;-63
2022/11/14 07:16:29;;;;;;;820.10;31.95;;;;;;;;;;8354337;28;20826;-63
2022/11/14 07:20:29;;;;;;;924.50;37.22;;;;;;;;;;8354501;28;20104;-63
2022/11/14 07:24:30;;;;;;;709.58;28.52;;;;;;;;;;8354717;28;20033;-63
2022/11/14 07:28:30;;;;;;;735.90;31.77;;;;;;;;;;8343255;28;20036;-63
2022/11/14 07:32:31;;;;;;;835.30;32.30;;;;;;;;;;8352370;28;20275;-63
2022/11/14 07:36:31;;;;;;;1106.07;39.40;;;;;;;;;;8357106;28;20175;-63
2022/11/14 07:40:31;;;;;;;1090.20;40.05;;;;;;;;;;8355905;28;20033;-63
2022/11/14 07:44:31;;;;;;;796.75;34.42;;;;;;;;;;8356553;28;20027;-63
2022/11/14 07:48:31;;;;;;;649.67;29.10;;;;;;;;;;8356386;28;20120;-63
2022/11/14 07:52:32;;;;;;;849.90;33.47;;;;;;;;;;8357459;28;20033;-63
2022/11/14 07:56:32;;;;;;;551.17;25.52;;;;;;;;;;8359150;28;20258;-63
2022/11/14 08:00:32;;;;;;;729.42;32.05;;;;;;;;;;8359178;28;20174;-63
2022/11/14 08:04:32;;;;;;;937.50;37.15;;;;;;;;;;8357207;28;20725;-63
2022/11/14 08:08:33;;;;;;;680.67;27.88;;;;;;;;;;8358000;28;20617;-63
2022/11/14 08:12:33;;;;;;;753.60;27.83;;;;;;;;;;8357042;28;20646;-63
2022/11/14 08:16:33;;;;;;;735.67;27.85;;;;;;;;;;8357051;28;20055;-64
2022/11/14 08:20:33;;;;;;;683.97;24.83;;;;;;;;;;8356157;28;20121;-63
2022/11/14 08:24:34;;;;;;;1082.47;37.28;;;;;;;;;;8356694;28;20021;-63
2022/11/14 08:28:34;;;;;;;1071.70;41.22;;;;;;;;;;8357226;28;20028;-63
2022/11/14 08:32:34;;;;;;;863.85;30.85;;;;;;;;;;8357406;28;20044;-63
2022/11/14 08:36:34;;;;;;;826.63;31.88;;;;;;;;;;8358372;28;20756;-64
2022/11/14 08:40:34;;;;;;;764.95;29.05;;;;;;;;;;8357636;28;20899;-63
2022/11/14 08:44:35;;;;;;;953.38;34.25;;;;;;;;;;8356559;28;20028;-63
2022/11/14 08:48:35;;;;;;;742.20;27.15;;;;;;;;;;8358650;28;20028;-63
2022/11/14 08:52:35;;;;;;;790.40;28.20;;;;;;;;;;8341933;28;20035;-68
2022/11/14 08:56:35;;;;;;;818.85;34.15;;;;;;;;;;8361010;28;20054;-63
2022/11/14 09:00:35;;;;;;;559.55;23.65;;;;;;;;;;8358252;28;20641;-64
2022/11/14 09:04:36;;;;;;;621.60;27.92;;;;;;;;;;8359391;28;20031;-63
2022/11/14 09:08:36;;;;;;;352.63;21.55;;;;;;;;;;8358009;28;20864;-63
2022/11/14 09:12:36;;;;;;;183.85;18.50;;;;;;;;;;8362025;28;20044;-63
2022/11/14 09:16:36;;;;;;;121.37;19.13;;;;;;;;;;8357193;28;20649;-63
2022/11/14 09:20:37;;;;;;;35.03;16.88;;;;;;;;;;8358648;28;20829;-63
2022/11/14 09:24:37;;;;;;;29.60;16.85;;;;;;;;;;8359331;28;20482;-63
2022/11/14 09:28:37;;;;;;;28.85;15.32;;;;;;;;;;8340801;28;20021;-64
2022/11/14 09:32:37;;;;;;;25.77;14.73;;;;;;;;;;8357608;28;20145;-63
2022/11/14 09:36:37;;;;;;;28.58;15.85;;;;;;;;;;8357957;28;20082;-63
2022/11/14 09:41:01;;;;;;;23.27;14.85;;;;;;;;;;8358357;28;20086;-63
2022/11/14 09:45:02;;;;;;;20.33;14.15;;;;;;;;;;8356289;28;20929;-63
2022/11/14 09:49:07;;;;;;;20.27;14.77;;;;;;;;;;8358020;28;20032;-63
2022/11/14 09:53:18;;;;;;;21.15;15.70;;;;;;;;;;8357615;28;20027;-63
2022/11/14 09:57:19;;;;;;;20.23;14.80;;;;;;;;;;8338606;28;20032;-63
2022/11/14 10:01:51;;;;;;;19.40;14.45;;;;;;;;;;8357766;28;20052;-63
2022/11/14 10:06:18;;;;;;;18.98;13.38;;;;;;;;;;8300762;28;20978;-64
2022/11/14 10:10:42;;;;;;;17.13;12.68;;;;;;;;;;8351733;28;20044;-63
2022/11/14 10:14:58;;;;;;;22.85;15.20;;;;;;;;;;8353973;28;20036;-63
2022/11/14 10:19:14;;;;;;;16.75;12.30;;;;;;;;;;8356470;28;20039;-63
2022/11/14 10:23:33;;;;;;;18.25;12.40;;;;;;;;;;8357206;28;20247;-63
2022/11/14 10:27:37;;;;;;;15.20;11.60;;;;;;;;;;8357298;28;20025;-63
2022/11/14 10:31:40;;;;;;;19.00;11.88;;;;;;;;;;8356949;28;20588;-63
2022/11/14 10:35:41;;;;;;;17.60;13.07;;;;;;;;;;8355636;28;20020;-63
2022/11/14 10:39:54;;;;;;;15.10;10.68;;;;;;;;;;8338181;28;20337;-63
2022/11/14 10:43:54;;;;;;;17.23;11.50;;;;;;;;;;8355074;28;20017;-63
2022/11/14 10:48:00;;;;;;;13.73;10.63;;;;;;;;;;8354045;28;20968;-63
2022/11/14 10:52:02;;;;;;;16.52;10.18;;;;;;;;;;8356079;28;20028;-63
2022/11/14 10:56:03;;;;;;;15.70;11.07;;;;;;;;;;8356704;28;20062;-63
2022/11/14 11:00:16;;;;;;;14.07;10.05;;;;;;;;;;8354815;28;20024;-63
2022/11/14 11:04:23;;;;;;;14.25;11.10;;;;;;;;;;8354991;28;20974;-64
2022/11/14 11:12:44;;;;;;;12.15;9.90;;;;;;;;;;8355153;28;20031;-63
2022/11/14 11:16:45;;;;;;;12.80;10.00;;;;;;;;;;8352757;28;20055;-63
2022/11/14 11:21:00;;;;;;;13.48;10.82;;;;;;;;;;8355526;28;20031;-63
2022/11/14 11:25:00;;;;;;;13.93;10.30;;;;;;;;;;8363123;28;20031;-63
2022/11/14 11:29:00;;;;;;;13.02;9.68;;;;;;;;;;8359233;28;20047;-63
2022/11/14 11:33:24;;;;;;;15.63;10.25;;;;;;;;;;8360099;28;20041;-63
2022/11/14 11:37:27;;;;;;;17.83;10.60;;;;;;;;;;8349758;28;20048;-64
2022/11/14 11:41:32;;;;;;;16.70;11.70;;;;;;;;;;8362905;28;20025;-63
2022/11/14 11:45:33;;;;;;;15.95;11.77;;;;;;;;;;8362737;28;20844;-63
2022/11/14 11:49:39;;;;;;;14.90;11.30;;;;;;;;;;8361592;28;20792;-63
2022/11/14 11:53:45;;;;;;;16.02;12.52;;;;;;;;;;8359075;28;20021;-63
2022/11/14 11:57:54;;;;;;;19.63;12.70;;;;;;;;;;8364102;28;20135;-63
2022/11/14 12:01:54;;;;;;;17.92;13.10;;;;;;;;;;8361284;28;20071;-62
2022/11/14 12:06:05;;;;;;;18.40;12.75;;;;;;;;;;8359612;28;20024;-63
2022/11/14 12:10:25;;;;;;;16.48;12.50;;;;;;;;;;8359947;28;20024;-63
2022/11/14 12:14:47;;;;;;;21.52;12.85;;;;;;;;;;8369942;28;20025;-64
2022/11/14 12:19:06;;;;;;;20.30;12.73;;;;;;;;;;8353135;28;20033;-64
2022/11/14 12:23:07;;;;;;;16.35;11.75;;;;;;;;;;8357697;28;20107;-63
2022/11/14 12:27:28;;;;;;;18.50;12.45;;;;;;;;;;8359644;28;20056;-63
2022/11/14 12:31:31;;;;;;;17.17;12.45;;;;;;;;;;8355401;28;20044;-64
2022/11/14 12:35:33;;;;;;;15.18;10.75;;;;;;;;;;8356468;28;20053;-63
2022/11/14 12:39:33;;;;;;;16.77;12.07;;;;;;;;;;8357192;28;20599;-63
2022/11/14 12:43:37;;;;;;;21.63;12.13;;;;;;;;;;8355360;28;20032;-63
2022/11/14 12:47:57;;;;;;;25.47;14.13;;;;;;;;;;8347242;28;20344;-63
2022/11/14 12:51:57;;;;;;;17.67;12.23;;;;;;;;;;8354578;28;20020;-63
2022/11/14 12:56:04;;;;;;;18.60;11.90;;;;;;;;;;8355606;28;21158;-63
2022/11/14 13:00:06;;;;;;;16.77;10.75;;;;;;;;;;8354915;28;20028;-62
2022/11/14 13:04:16;;;;;;;21.58;12.13;;;;;;;;;;8335416;28;20040;-62
2022/11/14 13:08:26;;;;;;;16.83;10.75;;;;;;;;;;8355122;28;20024;-62
2022/11/14 13:25:37;;;;;;;25.92;13.32;;;;;;;;;;8355808;28;20069;-63
2022/11/14 13:29:37;;;;;;;14.50;8.98;;;;;;;;;;8352593;28;20957;-62
2022/11/14 13:33:39;;;;;;;17.00;10.77;;;;;;;;;;8354030;28;20577;-62
2022/11/14 13:37:39;;;;;;;14.18;10.00;;;;;;;;;;8335762;28;20155;-63
2022/11/14 13:41:48;;;;;;;14.07;9.38;;;;;;;;;;8354744;28;20059;-63
2022/11/14 13:46:04;;;;;;;27.95;14.18;;;;;;;;;;8353336;28;20511;-63
2022/11/14 13:50:09;;;;;;;18.65;12.60;;;;;;;;;;8322736;28;20482;-63
2022/11/14 13:54:13;;;;;;;15.55;10.55;;;;;;;;;;8356774;28;20090;-63
2022/11/14 13:58:32;;;;;;;27.75;15.50;;;;;;;;;;8334691;28;20021;-63
2022/11/14 14:02:35;;;;;;;26.02;13.23;;;;;;;;;;8353304;28;20469;-64
2022/11/14 14:06:36;;;;;;;24.38;12.27;;;;;;;;;;8357178;28;20028;-63
2022/11/14 14:10:58;;;;;;;33.40;15.33;;;;;;;;;;8353241;28;20089;-64
2022/11/14 14:14:58;;;;;;;33.25;14.70;;;;;;;;;;8351338;28;20281;-63
2022/11/14 14:18:58;;;;;;;24.55;13.05;;;;;;;;;;8355344;28;20037;-63
2022/11/14 14:23:15;;;;;;;36.58;20.23;;;;;;;;;;8357775;28;20151;-63
2022/11/14 14:27:15;;;;;;;36.50;20.85;;;;;;;;;;8354533;28;20032;-63
2022/11/14 14:31:18;;;;;;;56.77;27.57;;;;;;;;;;8357640;28;20040;-63
2022/11/14 14:35:23;;;;;;;43.08;25.25;;;;;;;;;;8355316;28;20275;-63
2022/11/14 14:39:25;;;;;;;24.58;14.75;;;;;;;;;;8357166;28;20059;-62
2022/11/14 14:43:30;;;;;;;30.15;14.43;;;;;;;;;;8355198;28;20028;-63
2022/11/14 14:47:31;;;;;;;15.40;10.07;;;;;;;;;;8341391;28;20757;-62
2022/11/14 14:51:33;;;;;;;16.20;10.35;;;;;;;;;;8352328;28;20444;-64
2022/11/14 14:55:34;;;;;;;16.17;9.90;;;;;;;;;;8349234;28;20405;-63
2022/11/14 14:59:34;;;;;;;11.23;8.43;;;;;;;;;;8349379;28;20748;-63
2022/11/14 15:03:36;;;;;;;12.43;8.57;;;;;;;;;;8349811;28;20425;-63
2022/11/14 15:07:38;;;;;;;12.20;8.40;;;;;;;;;;8353306;28;20048;-63
2022/11/14 15:11:40;;;;;;;13.65;8.40;;;;;;;;;;8352269;28;20013;-63
2022/11/14 15:15:41;;;;;;;12.18;9.27;;;;;;;;;;8351174;28;20067;-64
2022/11/14 15:19:43;;;;;;;13.20;9.02;;;;;;;;;;8350245;28;20028;-63
2022/11/14 15:23:43;;;;;;;15.65;9.20;;;;;;;;;;8356168;28;20081;-63
2022/11/14 15:27:46;;;;;;;12.68;8.07;;;;;;;;;;8352317;28;20127;-64
2022/11/14 15:31:53;;;;;;;14.57;8.52;;;;;;;;;;8351454;28;20099;-63
2022/11/14 15:36:04;;;;;;;10.80;8.23;;;;;;;;;;8351408;28;20017;-63
2022/11/14 15:40:22;;;;;;;12.25;8.30;;;;;;;;;;8353685;28;20148;-64
2022/11/14 15:44:45;;;;;;;10.02;8.15;;;;;;;;;;8352128;28;20038;-63
2022/11/14 15:48:45;;;;;;;11.68;8.98;;;;;;;;;;8351764;28;20074;-64
2022/11/14 15:52:47;;;;;;;13.75;8.60;;;;;;;;;;8351440;28;20021;-63
2022/11/14 15:56:47;;;;;;;14.48;9.15;;;;;;;;;;8352839;28;20023;-64
2022/11/14 16:00:49;;;;;;;19.10;12.25;;;;;;;;;;8351519;28;20081;-63
2022/11/14 16:04:50;;;;;;;20.55;11.65;;;;;;;;;;8351352;28;20020;-63
2022/11/14 16:08:51;;;;;;;23.52;12.43;;;;;;;;;;8352224;28;20017;-64
2022/11/14 16:12:51;;;;;;;26.33;14.45;;;;;;;;;;8355841;28;20033;-63
2022/11/14 16:16:51;;;;;;;22.20;13.00;;;;;;;;;;8359094;28;20057;-64
2022/11/14 16:20:57;;;;;;;22.02;12.45;;;;;;;;;;8360918;28;20027;-66
2022/11/14 16:24:58;;;;;;;18.95;12.75;;;;;;;;;;8362196;28;20050;-64
2022/11/14 16:28:59;;;;;;;21.42;12.73;;;;;;;;;;8362377;28;20333;-64
2022/11/14 16:32:59;;;;;;;25.52;15.88;;;;;;;;;;8339821;28;20151;-63
2022/11/14 16:37:00;;;;;;;31.35;19.55;;;;;;;;;;8358675;28;20028;-63
2022/11/14 16:41:00;;;;;;;31.13;20.42;;;;;;;;;;8360473;28;20020;-63
2022/11/14 16:45:00;;;;;;;25.10;15.55;;;;;;;;;;8359650;28;20127;-63
2022/11/14 16:49:01;;;;;;;33.05;21.77;;;;;;;;;;8356788;28;20783;-64
2022/11/14 16:53:01;;;;;;;20.15;12.95;;;;;;;;;;8359022;28;20032;-64
2022/11/14 16:57:01;;;;;;;22.98;14.60;;;;;;;;;;8357771;28;20033;-63
2022/11/14 17:01:04;;;;;;;14.60;9.82;;;;;;;;;;8356305;28;20048;-63
2022/11/14 17:05:04;;;;;;;22.27;13.50;;;;;;;;;;8357331;28;20139;-63
2022/11/14 17:09:04;;;;;;;12.65;9.10;;;;;;;;;;8357809;28;20056;-63
2022/11/14 17:13:04;;;;;;;16.02;9.60;;;;;;;;;;8354257;28;20025;-63
2022/11/14 17:17:05;;;;;;;17.52;10.23;;;;;;;;;;8354192;28;20472;-63
2022/11/14 17:21:06;;;;;;;14.25;9.50;;;;;;;;;;8354669;28;20918;-63
2022/11/14 17:25:07;;;;;;;11.93;8.30;;;;;;;;;;8355897;28;20056;-63
2022/11/14 17:29:07;;;;;;;17.20;9.63;;;;;;;;;;8356938;28;20510;-63
2022/11/14 17:33:08;;;;;;;27.60;17.48;;;;;;;;;;8355367;28;20032;-63
2022/11/14 17:37:08;;;;;;;11.95;8.10;;;;;;;;;;8354193;28;21069;-63
2022/11/14 17:41:08;;;;;;;12.48;9.00;;;;;;;;;;8356253;28;20063;-64
2022/11/14 17:45:09;;;;;;;11.65;7.75;;;;;;;;;;8350742;28;20032;-64
2022/11/14 17:49:09;;;;;;;11.35;8.75;;;;;;;;;;8353578;28;20047;-65
2022/11/14 17:53:09;;;;;;;13.27;8.82;;;;;;;;;;8355490;28;20059;-64
2022/11/14 17:57:12;;;;;;;10.90;8.02;;;;;;;;;;8356293;28;20471;-64
2022/11/14 18:01:16;;;;;;;11.65;8.10;;;;;;;;;;8355447;28;20071;-64
2022/11/14 18:05:16;;;;;;;;;;;;;;;;;;8355626;28;20024;-64
2022/11/14 18:09:16;;;;;;;11.98;6.88;;;;;;;;;;8351177;28;19912;-64
2022/11/14 18:13:16;;;;;;;10.57;6.25;;;;;;;;;;8345751;28;20024;-64
2022/11/14 18:17:16;;;;;;;14.38;7.75;;;;;;;;;;8348190;28;20036;-63
2022/11/14 18:21:18;;;;;;;5.82;4.53;;;;;;;;;;8348715;28;20119;-64
2022/11/14 18:25:19;;;;;;;11.57;4.85;;;;;;;;;;8326692;28;20332;-63
2022/11/14 18:29:19;;;;;;;10.80;5.05;;;;;;;;;;8349526;28;20032;-64
2022/11/14 18:33:19;;;;;;;6.32;4.60;;;;;;;;;;8346484;28;20045;-64
2022/11/14 18:37:21;;;;;;;7.63;4.05;;;;;;;;;;8348171;28;20897;-64
2022/11/14 18:41:21;;;;;;;7.00;4.45;;;;;;;;;;8349856;28;20024;-65
2022/11/14 18:45:21;;;;;;;9.23;4.40;;;;;;;;;;8350026;28;20041;-63
2022/11/14 18:49:21;;;;;;;8.60;4.60;;;;;;;;;;8349437;28;20255;-64
2022/11/14 18:53:22;;;;;;;6.80;4.15;;;;;;;;;;8348144;28;20957;-64
2022/11/14 18:57:22;;;;;;;5.82;4.10;;;;;;;;;;8350820;28;20024;-64
2022/11/14 19:01:25;;;;;;;7.33;4.40;;;;;;;;;;8348916;28;20143;-63
2022/11/14 19:05:25;;;;;;;6.93;4.07;;;;;;;;;;8351529;28;20575;-63
2022/11/14 19:09:25;;;;;;;5.47;3.58;;;;;;;;;;8347036;28;20090;-64
2022/11/14 19:13:25;;;;;;;8.07;4.45;;;;;;;;;;8345650;28;20484;-64
2022/11/14 19:17:26;;;;;;;5.57;3.75;;;;;;;;;;8349914;28;20037;-64
2022/11/14 19:21:26;;;;;;;7.97;3.95;;;;;;;;;;8346743;28;20020;-64
2022/11/14 19:25:26;;;;;;;5.03;3.90;;;;;;;;;;8347772;28;20048;-64
2022/11/14 19:29:27;;;;;;;8.38;4.05;;;;;;;;;;8349761;28;20016;-64
2022/11/14 19:33:27;;;;;;;8.30;4.25;;;;;;;;;;8348713;28;20059;-64
2022/11/14 19:37:27;;;;;;;8.20;4.13;;;;;;;;;;8349720;28;20091;-64
2022/11/14 19:41:29;;;;;;;5.78;4.05;;;;;;;;;;8352796;28;20449;-64
2022/11/14 19:45:32;;;;;;;5.30;3.63;;;;;;;;;;8351992;28;20064;-64
2022/11/14 19:49:32;;;;;;;7.75;3.65;;;;;;;;;;8358274;28;20120;-64
2022/11/14 19:53:33;;;;;;;5.23;3.57;;;;;;;;;;8354914;28;20143;-64
2022/11/14 19:57:33;;;;;;;8.10;3.58;;;;;;;;;;8348276;28;20362;-64
2022/11/14 20:01:34;;;;;;;5.68;3.90;;;;;;;;;;8348398;28;20530;-64
2022/11/14 20:05:34;;;;;;;6.77;3.47;;;;;;;;;;8349775;28;20373;-64
2022/11/14 20:09:34;;;;;;;4.68;3.80;;;;;;;;;;8354500;28;20025;-63
2022/11/14 20:13:35;;;;;;;6.80;3.67;;;;;;;;;;8355890;28;20036;-64
2022/11/14 20:17:36;;;;;;;10.07;4.03;;;;;;;;;;8354195;28;20805;-64
2022/11/14 20:21:36;;;;;;;5.50;3.50;;;;;;;;;;8359557;28;20063;-64
2022/11/14 20:25:37;;;;;;;7.30;3.67;;;;;;;;;;8357695;28;20813;-64
2022/11/14 20:29:37;;;;;;;7.28;3.78;;;;;;;;;;8355868;28;20096;-64
2022/11/14 20:33:38;;;;;;;8.73;3.83;;;;;;;;;;8354231;28;20040;-64
2022/11/14 20:37:38;;;;;;;4.25;3.17;;;;;;;;;;8352356;28;20390;-64
2022/11/14 20:41:39;;;;;;;9.45;4.13;;;;;;;;;;8355280;28;20035;-64
2022/11/14 20:45:39;;;;;;;6.75;3.40;;;;;;;;;;8352818;28;20045;-64
2022/11/14 20:49:39;;;;;;;7.10;3.75;;;;;;;;;;8354559;28;20025;-64
2022/11/14 20:53:40;;;;;;;6.47;3.38;;;;;;;;;;8354844;28;20028;-64
2022/11/14 20:57:40;;;;;;;6.10;3.58;;;;;;;;;;8357239;28;20012;-64
2022/11/14 21:01:40;;;;;;;5.25;3.20;;;;;;;;;;8353328;28;20032;-64
2022/11/14 21:05:41;;;;;;;5.68;3.50;;;;;;;;;;8353451;28;20021;-64
2022/11/14 21:09:41;;;;;;;7.93;3.85;;;;;;;;;;8351678;28;20023;-64
2022/11/14 21:13:57;;;;;;;5.47;3.17;;;;;;;;;;8352669;28;21041;-64
2022/11/14 21:17:57;;;;;;;5.90;3.60;;;;;;;;;;8351736;28;20147;-63
2022/11/14 21:21:57;;;;;;;4.10;3.35;;;;;;;;;;8354567;28;20515;-64
2022/11/14 21:26:01;;;;;;;5.18;3.13;;;;;;;;;;8352409;28;20106;-65
2022/11/14 21:30:02;;;;;;;;;;;;;;;;;;8354554;28;20031;-64
2022/11/14 21:34:03;;;;;;;4.78;2.97;;;;;;;;;;8337242;28;19976;-64
2022/11/14 21:38:03;;;;;;;4.78;3.28;;;;;;;;;;8352827;28;20024;-64
2022/11/14 21:42:04;;;;;;;4.50;3.00;;;;;;;;;;8357915;28;20027;-65
2022/11/14 21:46:05;;;;;;;4.45;3.60;;;;;;;;;;8355122;28;20073;-64
2022/11/14 21:50:05;;;;;;;4.85;3.42;;;;;;;;;;8355757;28;20016;-65
2022/11/14 21:54:06;;;;;;;5.93;3.65;;;;;;;;;;8358532;28;20837;-64
2022/11/14 21:58:06;;;;;;;5.80;3.50;;;;;;;;;;8354155;28;20166;-64
2022/11/14 22:06:28;;;;;;;6.25;3.50;;;;;;;;;;8351095;28;20151;-64
2022/11/14 22:10:29;;;;;;;5.40;3.58;;;;;;;;;;8337744;28;20529;-63
2022/11/14 22:14:29;;;;;;;6.63;3.70;;;;;;;;;;8356068;28;20796;-64
2022/11/14 22:18:29;;;;;;;5.38;3.92;;;;;;;;;;8354835;28;20041;-64
2022/11/14 22:22:30;;;;;;;4.43;3.75;;;;;;;;;;8355675;28;20020;-64
2022/11/14 22:26:30;;;;;;;8.93;3.80;;;;;;;;;;8355110;28;20156;-64
2022/11/14 22:30:30;;;;;;;5.07;3.80;;;;;;;;;;8357057;28;20694;-64
2022/11/14 22:34:30;;;;;;;4.07;3.28;;;;;;;;;;8354387;28;20029;-64
2022/11/14 22:38:31;;;;;;;5.32;3.67;;;;;;;;;;8354330;28;20067;-64
2022/11/14 22:42:31;;;;;;;6.88;3.83;;;;;;;;;;8351291;28;20062;-64
2022/11/14 22:46:32;;;;;;;4.68;3.45;;;;;;;;;;8353098;28;20051;-64
2022/11/14 22:50:32;;;;;;;4.93;3.72;;;;;;;;;;8355448;28;20052;-64
2022/11/14 22:54:32;;;;;;;4.05;2.95;;;;;;;;;;8354530;28;20028;-64
2022/11/14 22:58:33;;;;;;;5.60;3.63;;;;;;;;;;8352160;28;20120;-68
2022/11/14 23:02:33;;;;;;;4.90;3.20;;;;;;;;;;8353779;28;20037;-65
2022/11/14 23:06:34;;;;;;;4.90;3.35;;;;;;;;;;8351049;28;20024;-64
2022/11/14 23:10:34;;;;;;;5.78;3.35;;;;;;;;;;8335121;28;20021;-64
2022/11/14 23:14:34;;;;;;;3.97;3.00;;;;;;;;;;8353496;28;20130;-64
2022/11/14 23:18:34;;;;;;;5.18;3.65;;;;;;;;;;8357570;28;20681;-64
2022/11/14 23:22:35;;;;;;;6.68;4.13;;;;;;;;;;8360272;28;20797;-67
2022/11/14 23:26:35;;;;;;;5.60;4.15;;;;;;;;;;8361543;28;20091;-64
2022/11/14 23:30:35;;;;;;;7.15;4.40;;;;;;;;;;8361346;28;20037;-64
2022/11/14 23:34:35;;;;;;;5.82;3.83;;;;;;;;;;8362369;28;20021;-64
2022/11/14 23:38:36;;;;;;;5.40;4.03;;;;;;;;;;8361376;28;20027;-64
2022/11/14 23:42:36;;;;;;;5.80;4.50;;;;;;;;;;8359910;28;20056;-64
2022/11/14 23:46:36;;;;;;;4.70;3.55;;;;;;;;;;8358219;28;20048;-64
2022/11/14 23:50:36;;;;;;;5.43;4.15;;;;;;;;;;8358745;28;20173;-64
2022/11/14 23:54:36;;;;;;;6.07;3.73;;;;;;;;;;8362142;28;20064;-64
2022/11/14 23:58:37;;;;;;;8.32;3.35;;;;;;;;;;8360592;28;20277;-63
